Time;durP1;ratioP1;P1;durP2;ratioP2;P2;SDS_P1;SDS_P2;PMS_P1;PMS_P2;Temp;Humidity;BMP_temperature;BMP_pressure;BME280_temperature;BME280_humidity;BME280_pressure;Samples;Min_cycle;Max_cycle;Signal;HPM_P1;HPM_P2
2022/11/14 00:00:13;;;;;;;54.40;33.00;;;8.90;99.90;;;;;;4999357;28;20119;-66
2022/11/14 00:02:39;;;;;;;56.13;34.30;;;8.90;99.90;;;;;;4998313;28;20038;-67
2022/11/14 00:05:06;;;;;;;51.30;32.20;;;8.80;99.90;;;;;;5001304;28;20100;-66
2022/11/14 00:07:33;;;;;;;52.88;30.20;;;8.80;99.90;;;;;;4998470;28;20056;-66
2022/11/14 00:09:59;;;;;;;58.95;33.47;;;8.80;99.90;;;;;;4998681;28;20034;-67
2022/11/14 00:12:25;;;;;;;51.38;33.30;;;8.80;99.90;;;;;;5000681;28;20405;-66
2022/11/14 00:14:51;;;;;;;53.97;33.30;;;8.80;99.90;;;;;;5003923;28;20117;-66
2022/11/14 00:17:17;;;;;;;56.60;32.63;;;8.80;99.90;;;;;;4999544;28;20053;-66
2022/11/14 00:19:43;;;;;;;53.70;32.45;;;8.80;99.90;;;;;;4999234;28;20045;-66
2022/11/14 00:22:09;;;;;;;56.25;33.97;;;8.80;99.90;;;;;;4997654;28;20042;-66
2022/11/14 00:24:35;;;;;;;50.40;32.05;;;8.80;99.90;;;;;;4999703;28;20027;-66
2022/11/14 00:27:01;;;;;;;57.72;34.30;;;8.80;99.90;;;;;;4999538;28;20116;-66
2022/11/14 00:29:26;;;;;;;57.97;34.10;;;8.80;99.90;;;;;;4999973;28;20060;-66
2022/11/14 00:31:52;;;;;;;56.13;33.80;;;8.80;99.90;;;;;;4998890;28;20123;-66
2022/11/14 00:34:17;;;;;;;57.35;34.70;;;8.80;99.90;;;;;;4999193;28;20026;-66
2022/11/14 00:36:43;;;;;;;54.75;32.15;;;8.80;99.90;;;;;;4998011;28;20038;-66
2022/11/14 00:39:13;;;;;;;60.28;34.90;;;8.80;99.90;;;;;;4999332;28;20030;-66
2022/11/14 00:41:40;;;;;;;55.80;33.80;;;8.80;99.90;;;;;;4997534;28;20501;-66
2022/11/14 00:44:07;;;;;;;58.90;33.88;;;8.80;99.90;;;;;;5000697;28;20464;-66
2022/11/14 00:46:33;;;;;;;60.67;34.35;;;8.80;99.90;;;;;;4998872;28;20026;-66
2022/11/14 00:48:59;;;;;;;58.38;33.50;;;8.80;99.90;;;;;;4998644;28;20092;-66
2022/11/14 00:51:24;;;;;;;55.35;32.70;;;8.80;99.90;;;;;;4998680;28;20497;-66
2022/11/14 00:53:50;;;;;;;60.70;34.05;;;8.80;99.90;;;;;;4998653;28;20064;-66
2022/11/14 00:56:16;;;;;;;55.20;33.15;;;8.80;99.90;;;;;;4999561;28;20378;-66
2022/11/14 00:58:41;;;;;;;56.22;33.58;;;8.80;99.90;;;;;;4998270;28;20029;-66
2022/11/14 01:01:07;;;;;;;59.88;35.35;;;8.80;99.90;;;;;;4999125;28;20817;-66
2022/11/14 01:03:33;;;;;;;58.67;32.65;;;8.80;99.90;;;;;;4999237;28;20038;-66
2022/11/14 01:06:06;;;;;;;59.28;35.63;;;8.70;99.90;;;;;;5001808;28;20141;-66
2022/11/14 01:08:32;;;;;;;60.20;33.50;;;8.70;99.90;;;;;;5004383;28;20018;-66
2022/11/14 01:10:59;;;;;;;61.30;34.35;;;8.70;99.90;;;;;;5008289;28;20121;-66
2022/11/14 01:13:30;;;;;;;59.95;34.35;;;8.70;99.90;;;;;;5004903;28;20017;-67
2022/11/14 01:16:00;;;;;;;56.78;33.45;;;8.70;99.90;;;;;;5005157;28;20070;-66
2022/11/14 01:18:26;;;;;;;54.05;33.42;;;8.60;99.90;;;;;;5004014;28;20057;-66
2022/11/14 01:20:52;;;;;;;58.90;33.95;;;8.60;99.90;;;;;;5004524;28;20080;-66
2022/11/14 01:23:18;;;;;;;57.28;33.35;;;8.60;99.90;;;;;;5005564;28;20034;-66
2022/11/14 01:25:44;;;;;;;61.20;34.70;;;8.60;99.90;;;;;;5007106;28;20030;-66
2022/11/14 01:28:15;;;;;;;64.28;35.53;;;8.60;99.90;;;;;;5004328;28;20452;-67
2022/11/14 01:30:41;;;;;;;60.35;37.03;;;8.60;99.90;;;;;;5006243;28;20033;-66
2022/11/14 01:33:08;;;;;;;59.60;35.30;;;8.50;99.90;;;;;;5004461;28;20092;-66
2022/11/14 01:35:36;;;;;;;59.50;35.22;;;8.50;99.90;;;;;;5005587;28;20033;-66
2022/11/14 01:38:03;;;;;;;61.95;36.40;;;8.50;99.90;;;;;;5005222;28;20045;-66
2022/11/14 01:40:29;;;;;;;63.25;35.50;;;8.50;99.90;;;;;;5005265;28;20095;-66
2022/11/14 01:43:10;;;;;;;64.57;36.58;;;8.50;99.90;;;;;;5005601;28;20118;-66
2022/11/14 01:46:01;;;;;;;63.65;36.05;;;8.50;99.90;;;;;;5004795;28;20100;-66
2022/11/14 01:48:37;;;;;;;64.93;35.30;;;8.40;99.90;;;;;;5003410;28;20121;-66
2022/11/14 01:51:22;;;;;;;67.57;36.25;;;8.40;99.90;;;;;;5005019;28;20026;-66
2022/11/14 01:53:57;;;;;;;60.58;36.60;;;8.40;99.90;;;;;;5004933;28;20124;-66
2022/11/14 01:56:31;;;;;;;;;;;8.40;99.90;;;;;;5009167;28;20084;-66
2022/11/14 01:59:06;;;;;;;66.82;35.05;;;8.40;99.90;;;;;;5004191;28;20349;-66
2022/11/14 02:01:34;;;;;;;78.18;41.08;;;8.30;99.90;;;;;;5005649;28;20072;-66
2022/11/14 02:04:03;;;;;;;77.18;38.10;;;8.30;99.90;;;;;;5007554;28;20107;-66
2022/11/14 02:06:30;;;;;;;70.10;37.53;;;8.30;99.90;;;;;;5004608;28;20485;-66
2022/11/14 02:08:59;;;;;;;63.15;35.92;;;8.40;99.90;;;;;;5005288;28;20034;-66
2022/11/14 02:11:28;;;;;;;71.63;38.90;;;8.40;99.90;;;;;;4996150;28;20397;-66
2022/11/14 02:13:54;;;;;;;64.50;37.40;;;8.40;99.90;;;;;;5007808;28;20025;-66
2022/11/14 02:16:21;;;;;;;63.33;36.17;;;8.40;99.90;;;;;;5002846;28;20033;-66
2022/11/14 02:18:46;;;;;;;64.03;35.75;;;8.40;99.90;;;;;;5000602;28;20029;-66
2022/11/14 02:21:12;;;;;;;72.72;37.88;;;8.40;99.90;;;;;;5001573;28;20045;-66
2022/11/14 02:23:38;;;;;;;63.20;35.38;;;8.40;99.90;;;;;;5001980;28;20516;-66
2022/11/14 02:26:04;;;;;;;61.10;35.88;;;8.50;99.90;;;;;;5003032;28;20091;-66
2022/11/14 02:28:30;;;;;;;63.38;35.05;;;8.50;99.90;;;;;;5001203;28;20052;-66
2022/11/14 02:30:55;;;;;;;61.17;33.90;;;8.60;99.90;;;;;;5002010;28;20024;-66
2022/11/14 02:33:21;;;;;;;63.55;35.78;;;8.60;99.90;;;;;;4999873;28;20026;-66
2022/11/14 02:35:47;;;;;;;62.80;33.95;;;8.60;99.90;;;;;;5004623;28;20033;-66
2022/11/14 02:38:13;;;;;;;66.57;36.67;;;8.60;99.90;;;;;;5000232;28;20022;-66
2022/11/14 02:40:38;;;;;;;62.15;34.30;;;8.60;99.90;;;;;;5001571;28;20042;-66
2022/11/14 02:43:04;;;;;;;59.63;33.63;;;8.60;99.90;;;;;;5003233;28;21668;-66
2022/11/14 02:45:30;;;;;;;68.10;37.22;;;8.60;99.90;;;;;;5001115;28;20049;-66
2022/11/14 02:47:55;;;;;;;62.35;35.28;;;8.60;99.90;;;;;;5003289;28;20030;-66
2022/11/14 02:50:21;;;;;;;57.50;32.38;;;8.60;99.90;;;;;;5001409;28;20068;-66
2022/11/14 02:52:47;;;;;;;57.40;32.47;;;8.60;99.90;;;;;;5002663;28;20022;-66
2022/11/14 02:55:12;;;;;;;62.03;33.20;;;8.70;99.90;;;;;;5000432;28;20591;-66
2022/11/14 02:57:38;;;;;;;60.85;33.45;;;8.70;99.90;;;;;;5002169;28;20109;-66
2022/11/14 03:00:05;;;;;;;58.60;33.33;;;8.70;99.90;;;;;;4999434;28;20052;-66
2022/11/14 03:02:30;;;;;;;60.55;32.97;;;8.70;99.90;;;;;;5000532;28;20112;-66
2022/11/14 03:04:56;;;;;;;63.97;36.13;;;8.80;99.90;;;;;;5000155;28;20501;-66
2022/11/14 03:07:22;;;;;;;64.32;35.05;;;8.80;99.90;;;;;;5002849;28;20120;-66
2022/11/14 03:09:47;;;;;;;55.58;33.95;;;8.80;99.90;;;;;;5000834;28;20041;-66
2022/11/14 03:12:18;;;;;;;55.63;32.78;;;8.70;99.90;;;;;;4999069;28;20022;-66
2022/11/14 03:14:44;;;;;;;58.22;35.97;;;8.70;99.90;;;;;;5000015;28;20070;-66
2022/11/14 03:17:10;;;;;;;61.28;32.65;;;8.70;99.90;;;;;;5012552;28;20053;-66
2022/11/14 03:19:38;;;;;;;55.47;33.00;;;8.70;99.90;;;;;;5001336;28;20037;-66
2022/11/14 03:22:03;;;;;;;68.53;35.15;;;8.60;99.90;;;;;;5000238;28;20076;-66
2022/11/14 03:24:49;;;;;;;58.78;31.58;;;8.60;99.90;;;;;;5000758;28;20049;-66
2022/11/14 03:27:35;;;;;;;58.58;32.60;;;8.60;99.90;;;;;;4999112;28;20053;-66
2022/11/14 03:30:21;;;;;;;66.28;33.92;;;8.60;99.90;;;;;;4998980;28;20485;-66
2022/11/14 03:32:47;;;;;;;64.95;32.85;;;8.60;99.90;;;;;;4999746;28;20037;-66
2022/11/14 03:35:12;;;;;;;61.85;33.95;;;8.60;99.90;;;;;;5000461;28;20033;-66
2022/11/14 03:37:38;;;;;;;59.38;32.83;;;8.60;99.90;;;;;;4999349;28;20563;-66
2022/11/14 03:40:05;;;;;;;62.55;34.10;;;8.60;99.90;;;;;;4998674;28;20052;-67
2022/11/14 03:42:34;;;;;;;61.72;33.70;;;8.60;99.90;;;;;;4999949;28;20034;-66
2022/11/14 03:45:00;;;;;;;61.17;33.08;;;8.60;99.90;;;;;;5000404;28;20137;-66
2022/11/14 03:47:25;;;;;;;62.80;35.42;;;8.60;99.90;;;;;;5000565;28;20210;-66
2022/11/14 03:49:52;;;;;;;60.53;34.63;;;8.60;99.90;;;;;;4999399;28;20018;-67
2022/11/14 03:52:19;;;;;;;60.45;32.72;;;8.60;99.90;;;;;;5001146;28;20072;-66
2022/11/14 03:54:45;;;;;;;59.33;34.47;;;8.60;99.90;;;;;;4999261;28;20029;-66
2022/11/14 03:57:10;;;;;;;59.95;32.90;;;8.60;99.90;;;;;;5000076;28;20425;-66
2022/11/14 03:59:36;;;;;;;60.28;32.97;;;8.60;99.90;;;;;;4999022;28;20025;-66
2022/11/14 04:02:02;;;;;;;62.83;32.13;;;8.60;99.90;;;;;;5001123;28;20408;-66
2022/11/14 04:04:27;;;;;;;66.00;35.65;;;8.60;99.90;;;;;;4998426;28;20084;-66
2022/11/14 04:06:53;;;;;;;69.78;33.75;;;8.60;99.90;;;;;;4999659;28;20117;-66
2022/11/14 04:09:19;;;;;;;66.70;33.65;;;8.50;99.90;;;;;;4999692;28;20029;-66
2022/11/14 04:11:44;;;;;;;62.35;34.80;;;8.50;99.90;;;;;;5000005;28;20033;-66
2022/11/14 04:14:11;;;;;;;68.72;35.03;;;8.40;99.90;;;;;;5003813;28;20021;-66
2022/11/14 04:16:37;;;;;;;63.83;34.00;;;8.40;99.90;;;;;;4999232;28;20049;-67
2022/11/14 04:19:03;;;;;;;64.07;33.45;;;8.50;99.90;;;;;;4999313;28;20030;-66
2022/11/14 04:21:28;;;;;;;68.32;34.78;;;8.40;99.90;;;;;;5002623;28;20042;-66
2022/11/14 04:23:55;;;;;;;66.30;35.05;;;8.40;99.90;;;;;;4999517;28;20026;-66
2022/11/14 04:26:20;;;;;;;63.67;35.08;;;8.40;99.90;;;;;;4999519;28;20730;-66
2022/11/14 04:28:46;;;;;;;60.15;33.65;;;8.40;99.90;;;;;;4999362;28;20797;-66
2022/11/14 04:31:12;;;;;;;62.65;34.35;;;8.30;99.90;;;;;;4989873;28;20099;-66
2022/11/14 04:33:38;;;;;;;65.53;32.15;;;8.30;99.90;;;;;;5000839;28;20045;-66
2022/11/14 04:36:05;;;;;;;68.50;37.28;;;8.30;99.90;;;;;;5002385;28;20029;-66
2022/11/14 04:38:30;;;;;;;61.65;31.52;;;8.30;99.90;;;;;;4998491;28;20497;-66
2022/11/14 04:40:57;;;;;;;66.75;34.25;;;8.30;99.90;;;;;;4999533;28;20072;-66
2022/11/14 04:43:23;;;;;;;71.40;36.22;;;8.30;99.90;;;;;;4998105;28;20022;-66
2022/11/14 04:45:48;;;;;;;63.75;34.00;;;8.30;99.90;;;;;;4999254;28;20437;-66
2022/11/14 04:48:14;;;;;;;64.25;32.88;;;8.30;99.90;;;;;;4998862;28;20077;-66
2022/11/14 04:50:40;;;;;;;59.67;33.72;;;8.30;99.90;;;;;;4997628;28;20038;-66
2022/11/14 04:53:05;;;;;;;68.72;36.83;;;8.30;99.90;;;;;;4997540;28;20639;-66
2022/11/14 04:55:31;;;;;;;71.18;38.15;;;8.30;99.90;;;;;;4997796;28;20033;-66
2022/11/14 04:57:57;;;;;;;67.57;36.38;;;8.30;99.90;;;;;;4998890;28;20543;-66
2022/11/14 05:00:24;;;;;;;72.10;37.63;;;8.30;99.90;;;;;;4999344;28;20078;-66
2022/11/14 05:02:50;;;;;;;69.43;35.92;;;8.30;99.90;;;;;;4998084;28;20080;-66
2022/11/14 05:05:15;;;;;;;62.55;35.47;;;8.30;99.90;;;;;;4997682;28;20018;-66
2022/11/14 05:07:41;;;;;;;72.13;38.05;;;8.30;99.90;;;;;;4997404;28;21474;-66
2022/11/14 05:10:07;;;;;;;69.63;35.20;;;8.20;99.90;;;;;;4998855;28;20385;-66
2022/11/14 05:12:33;;;;;;;64.35;34.95;;;8.30;99.90;;;;;;5004748;28;20034;-66
2022/11/14 05:14:59;;;;;;;66.90;35.92;;;8.30;99.90;;;;;;4998226;28;20465;-66
2022/11/14 05:17:25;;;;;;;63.60;33.92;;;8.30;99.90;;;;;;4997952;28;20538;-66
2022/11/14 05:19:51;;;;;;;67.93;35.83;;;8.20;99.90;;;;;;4998717;28;20034;-66
2022/11/14 05:22:17;;;;;;;68.75;35.53;;;8.30;99.90;;;;;;4999722;28;20580;-66
2022/11/14 05:24:42;;;;;;;65.88;34.80;;;8.30;99.90;;;;;;4998320;28;20113;-66
2022/11/14 05:27:08;;;;;;;67.28;34.58;;;8.20;99.90;;;;;;4999021;28;20084;-66
2022/11/14 05:29:35;;;;;;;67.15;34.80;;;8.20;99.90;;;;;;4998866;28;20037;-66
2022/11/14 05:32:01;;;;;;;61.20;35.80;;;8.30;99.90;;;;;;4998095;28;20041;-67
2022/11/14 05:34:27;;;;;;;62.05;34.70;;;8.30;99.90;;;;;;4998874;28;20018;-66
2022/11/14 05:36:52;;;;;;;65.80;34.90;;;8.30;99.90;;;;;;4998508;28;20040;-67
2022/11/14 05:39:18;;;;;;;67.90;35.20;;;8.30;99.90;;;;;;4997554;28;20053;-66
2022/11/14 05:41:44;;;;;;;61.45;33.13;;;8.30;99.90;;;;;;4998829;28;20046;-67
2022/11/14 05:44:09;;;;;;;68.93;34.30;;;8.40;99.90;;;;;;4999449;28;20527;-67
2022/11/14 05:46:35;;;;;;;64.25;34.47;;;8.40;99.90;;;;;;4997280;28;20117;-66
2022/11/14 05:49:01;;;;;;;63.60;33.78;;;8.40;99.90;;;;;;4998114;28;20523;-67
2022/11/14 05:51:28;;;;;;;64.35;34.38;;;8.40;99.90;;;;;;5001605;28;20026;-67
2022/11/14 05:53:54;;;;;;;64.60;35.88;;;8.40;99.90;;;;;;5001878;28;20034;-66
2022/11/14 05:56:20;;;;;;;57.33;33.35;;;8.40;99.90;;;;;;5001450;28;20512;-67
2022/11/14 05:58:45;;;;;;;64.88;33.38;;;8.40;99.90;;;;;;5002228;28;20106;-67
2022/11/14 06:01:16;;;;;;;60.33;34.10;;;8.40;99.90;;;;;;5001671;28;20037;-66
2022/11/14 06:03:45;;;;;;;71.25;36.38;;;8.40;99.90;;;;;;5003039;28;20026;-67
2022/11/14 06:06:14;;;;;;;66.32;35.47;;;8.30;99.90;;;;;;5002298;28;20033;-66
2022/11/14 06:08:40;;;;;;;62.97;34.33;;;8.40;99.90;;;;;;5001814;28;20117;-67
2022/11/14 06:11:15;;;;;;;66.53;36.20;;;8.40;99.90;;;;;;5001726;28;20041;-67
2022/11/14 06:13:41;;;;;;;;;;;8.40;99.90;;;;;;5007858;28;20095;-67
2022/11/14 06:16:10;;;;;;;70.03;34.30;;;8.40;99.90;;;;;;5001023;28;20004;-67
2022/11/14 06:18:36;;;;;;;63.88;35.10;;;8.30;99.90;;;;;;5002008;28;20497;-67
2022/11/14 06:21:04;;;;;;;62.42;32.35;;;8.40;99.90;;;;;;5002932;28;20046;-67
2022/11/14 06:23:30;;;;;;;71.28;37.17;;;8.30;99.90;;;;;;5000320;28;20102;-67
2022/11/14 06:26:05;;;;;;;67.22;35.25;;;8.30;99.90;;;;;;5001854;28;22006;-67
2022/11/14 06:28:31;;;;;;;66.35;36.58;;;8.30;99.90;;;;;;5001340;28;20044;-67
2022/11/14 06:30:58;;;;;;;69.75;34.75;;;8.30;99.90;;;;;;5000254;28;20029;-67
2022/11/14 06:33:25;;;;;;;66.38;35.22;;;8.20;99.90;;;;;;5000668;28;20068;-66
2022/11/14 06:35:57;;;;;;;61.88;33.78;;;8.20;99.90;;;;;;5001598;28;20076;-67
2022/11/14 06:38:23;;;;;;;64.70;34.50;;;8.20;99.90;;;;;;5000947;28;20038;-67
2022/11/14 06:40:48;;;;;;;62.15;33.45;;;8.20;99.90;;;;;;5000066;28;20038;-66
2022/11/14 06:43:14;;;;;;;69.10;35.05;;;8.20;99.90;;;;;;5001221;28;20034;-67
2022/11/14 06:45:40;;;;;;;65.80;34.60;;;8.10;99.90;;;;;;5004497;28;20041;-67
2022/11/14 06:48:06;;;;;;;65.95;33.92;;;8.10;99.90;;;;;;5000718;28;20041;-67
2022/11/14 06:50:32;;;;;;;63.22;34.75;;;8.10;99.90;;;;;;5001273;28;20489;-67
2022/11/14 06:52:57;;;;;;;66.13;33.88;;;8.10;99.90;;;;;;4999918;28;20066;-68
2022/11/14 06:55:23;;;;;;;64.20;36.00;;;8.10;99.90;;;;;;5001948;28;20018;-69
2022/11/14 06:57:55;;;;;;;69.07;33.95;;;8.10;99.90;;;;;;4999898;28;20029;-69
2022/11/14 07:00:21;;;;;;;69.78;35.88;;;8.00;99.90;;;;;;5002249;28;20030;-68
2022/11/14 07:02:47;;;;;;;64.95;34.10;;;8.00;99.90;;;;;;5000601;28;20037;-67
2022/11/14 07:05:13;;;;;;;63.63;33.38;;;8.00;99.90;;;;;;5001711;28;20121;-68
2022/11/14 07:07:39;;;;;;;72.03;37.30;;;8.10;99.90;;;;;;5000524;28;20052;-67
2022/11/14 07:10:05;;;;;;;72.82;36.78;;;8.10;99.90;;;;;;5000730;28;20018;-67
2022/11/14 07:12:31;;;;;;;68.35;35.05;;;8.10;99.90;;;;;;5006116;28;20041;-67
2022/11/14 07:14:57;;;;;;;71.97;35.22;;;8.10;99.90;;;;;;4999534;28;20030;-67
2022/11/14 07:17:23;;;;;;;72.82;36.33;;;8.10;99.90;;;;;;5001592;28;20035;-67
2022/11/14 07:19:49;;;;;;;65.03;34.67;;;8.10;99.90;;;;;;4998136;28;20026;-67
2022/11/14 07:22:15;;;;;;;75.85;36.90;;;8.10;99.90;;;;;;4999844;28;20038;-68
2022/11/14 07:24:40;;;;;;;71.32;34.65;;;8.10;99.90;;;;;;5000447;28;20462;-67
2022/11/14 07:27:09;;;;;;;66.18;33.85;;;8.10;99.90;;;;;;4991340;28;20037;-67
2022/11/14 07:29:35;;;;;;;67.20;32.53;;;8.10;99.90;;;;;;4991916;28;20022;-67
2022/11/14 07:32:01;;;;;;;65.68;35.22;;;8.00;99.90;;;;;;5000605;28;20037;-67
2022/11/14 07:34:27;;;;;;;66.78;33.63;;;8.10;99.90;;;;;;4999940;28;20030;-67
2022/11/14 07:36:53;;;;;;;69.40;32.67;;;8.00;99.90;;;;;;5000816;28;20036;-68
2022/11/14 07:39:19;;;;;;;66.63;34.88;;;8.10;99.90;;;;;;5000509;28;20405;-67
2022/11/14 07:41:45;;;;;;;73.22;36.20;;;8.10;99.90;;;;;;5001945;28;20146;-68
2022/11/14 07:44:11;;;;;;;68.57;34.78;;;8.10;99.90;;;;;;4999348;28;20078;-67
2022/11/14 07:46:36;;;;;;;70.85;35.53;;;8.10;99.90;;;;;;4999115;28;20020;-67
2022/11/14 07:49:02;;;;;;;70.47;35.03;;;8.10;99.90;;;;;;5002384;28;20025;-67
2022/11/14 07:51:28;;;;;;;70.47;36.05;;;8.10;99.90;;;;;;5000275;28;20042;-67
2022/11/14 07:53:54;;;;;;;73.00;37.30;;;8.10;99.90;;;;;;4998435;28;20478;-68
2022/11/14 07:56:21;;;;;;;73.00;35.22;;;8.10;99.90;;;;;;4999654;28;20033;-67
2022/11/14 07:58:46;;;;;;;70.20;34.80;;;8.10;99.90;;;;;;5000236;28;20164;-67
2022/11/14 08:01:13;;;;;;;68.07;34.85;;;8.20;99.90;;;;;;5001304;28;20037;-67
2022/11/14 08:03:39;;;;;;;65.95;35.90;;;8.30;99.90;;;;;;5000652;28;20477;-67
2022/11/14 08:06:07;;;;;;;66.15;31.80;;;8.30;99.90;;;;;;5004179;28;20044;-67
2022/11/14 08:08:32;;;;;;;68.43;32.75;;;8.30;99.90;;;;;;4998297;28;20124;-67
2022/11/14 08:10:59;;;;;;;59.92;32.22;;;8.40;99.90;;;;;;4998455;28;20025;-68
2022/11/14 08:13:26;;;;;;;67.13;34.63;;;8.40;99.90;;;;;;5000445;28;20029;-67
2022/11/14 08:15:51;;;;;;;67.95;34.03;;;8.40;99.90;;;;;;5006476;28;20038;-67
2022/11/14 08:18:17;;;;;;;62.00;30.45;;;8.40;99.90;;;;;;5000934;28;20033;-67
2022/11/14 08:20:43;;;;;;;63.20;32.45;;;8.50;99.90;;;;;;5000060;28;20474;-67
2022/11/14 08:23:10;;;;;;;61.72;33.90;;;8.50;99.90;;;;;;5001933;28;20107;-67
2022/11/14 08:25:36;;;;;;;66.40;33.95;;;8.60;99.90;;;;;;4996866;28;20080;-67
2022/11/14 08:28:02;;;;;;;64.18;33.55;;;8.60;99.90;;;;;;5000713;28;20489;-67
2022/11/14 08:30:28;;;;;;;66.18;33.58;;;8.60;99.90;;;;;;4999666;28;20084;-67
2022/11/14 08:32:54;;;;;;;65.15;32.17;;;8.60;99.90;;;;;;4998816;28;20054;-67
2022/11/14 08:35:20;;;;;;;63.83;33.75;;;8.60;99.90;;;;;;4997108;28;20026;-66
2022/11/14 08:37:46;;;;;;;59.63;32.70;;;8.60;99.90;;;;;;5000004;28;20437;-67
2022/11/14 08:40:12;;;;;;;63.88;32.08;;;8.60;99.90;;;;;;4998968;28;20038;-69
2022/11/14 08:42:37;;;;;;;59.63;32.20;;;8.60;99.90;;;;;;4998854;28;20494;-66
2022/11/14 08:45:03;;;;;;;61.13;32.38;;;8.50;99.90;;;;;;4998735;28;20052;-68
2022/11/14 08:47:29;;;;;;;55.60;30.02;;;8.50;99.90;;;;;;4999874;28;20048;-68
2022/11/14 08:49:55;;;;;;;59.83;30.20;;;8.50;99.90;;;;;;4999693;28;20038;-68
2022/11/14 08:52:21;;;;;;;54.22;28.75;;;8.60;99.90;;;;;;4999810;28;20053;-67
2022/11/14 08:54:49;;;;;;;58.17;30.67;;;8.60;99.90;;;;;;4998865;28;20057;-68
2022/11/14 08:57:14;;;;;;;59.58;32.60;;;8.60;99.90;;;;;;4998217;28;20120;-67
2022/11/14 08:59:41;;;;;;;59.35;31.58;;;8.60;99.90;;;;;;4998450;28;20085;-68
2022/11/14 09:02:13;;;;;;;60.90;32.28;;;8.70;99.90;;;;;;4998304;28;20083;-68
2022/11/14 09:04:39;;;;;;;56.15;29.90;;;8.70;99.90;;;;;;4998819;28;20030;-67
2022/11/14 09:07:05;;;;;;;56.15;30.02;;;8.80;99.90;;;;;;4998305;28;20038;-68
2022/11/14 09:09:32;;;;;;;60.42;32.20;;;8.80;99.90;;;;;;4998507;28;20113;-68
2022/11/14 09:11:57;;;;;;;54.17;29.38;;;8.90;99.90;;;;;;4998832;28;20535;-68
2022/11/14 09:14:24;;;;;;;54.72;29.90;;;8.90;99.90;;;;;;4998024;28;20030;-68
2022/11/14 09:16:50;;;;;;;48.70;27.50;;;8.90;99.90;;;;;;5003299;28;20054;-68
2022/11/14 09:19:15;;;;;;;55.28;27.98;;;8.90;99.90;;;;;;4997364;28;20065;-68
2022/11/14 09:21:41;;;;;;;54.95;29.75;;;8.90;99.90;;;;;;4997579;28;20042;-68
2022/11/14 09:24:08;;;;;;;54.53;30.63;;;8.80;99.90;;;;;;5000269;28;20038;-68
2022/11/14 09:26:34;;;;;;;61.20;30.98;;;8.90;99.90;;;;;;4998895;28;20038;-68
2022/11/14 09:29:01;;;;;;;56.53;27.95;;;8.80;99.90;;;;;;5002015;28;20022;-68
2022/11/14 09:31:27;;;;;;;57.65;29.35;;;8.80;99.90;;;;;;5002910;28;20508;-68
2022/11/14 09:33:53;;;;;;;51.38;27.67;;;8.80;99.90;;;;;;5002881;28;20038;-68
2022/11/14 09:36:18;;;;;;;50.80;29.27;;;8.80;99.90;;;;;;5003462;28;20038;-68
2022/11/14 09:38:44;;;;;;;53.20;29.27;;;8.90;99.90;;;;;;5001451;28;20034;-68
2022/11/14 09:41:31;;;;;;;49.90;27.20;;;8.90;99.90;;;;;;5006110;28;20111;-69
2022/11/14 09:44:18;;;;;;;52.45;27.85;;;8.90;99.90;;;;;;5002282;28;20095;-69
2022/11/14 09:47:07;;;;;;;54.35;27.42;;;9.00;99.90;;;;;;5001366;28;20038;-70
2022/11/14 09:49:46;;;;;;;50.03;27.15;;;9.00;99.90;;;;;;5004828;28;20034;-71
2022/11/14 09:52:21;;;;;;;54.08;30.50;;;9.00;99.90;;;;;;5003476;28;20038;-67
2022/11/14 09:54:59;;;;;;;54.70;29.98;;;9.00;99.90;;;;;;5004071;28;20191;-68
2022/11/14 09:57:26;;;;;;;50.72;28.30;;;9.10;99.90;;;;;;5001326;28;20042;-68
2022/11/14 09:59:52;;;;;;;52.90;28.43;;;9.10;99.90;;;;;;5000869;28;20025;-68
2022/11/14 10:02:32;;;;;;;57.65;29.55;;;9.10;99.90;;;;;;5001946;28;20103;-68
2022/11/14 10:05:15;;;;;;;51.80;29.02;;;9.10;99.90;;;;;;5002300;28;20107;-68
2022/11/14 10:08:00;;;;;;;58.17;29.95;;;9.10;99.90;;;;;;5003007;28;20038;-68
2022/11/14 10:10:44;;;;;;;49.15;27.45;;;9.10;99.90;;;;;;5019625;28;20061;-69
2022/11/14 10:13:25;;;;;;;49.85;25.60;;;9.10;99.90;;;;;;5002069;28;20037;-68
2022/11/14 10:16:14;;;;;;;55.47;29.15;;;9.20;99.90;;;;;;5002018;28;20117;-68
2022/11/14 10:19:08;;;;;;;49.15;27.75;;;9.30;99.90;;;;;;5000457;28;20030;-68
2022/11/14 10:22:04;;;;;;;50.40;28.17;;;9.30;99.90;;;;;;5000927;28;20603;-67
2022/11/14 10:24:40;;;;;;;54.72;29.30;;;9.30;99.90;;;;;;5002677;28;20028;-69
2022/11/14 10:27:25;;;;;;;;;;;9.40;99.90;;;;;;5004126;28;20382;-69
2022/11/14 10:29:54;;;;;;;41.97;25.02;;;9.40;99.90;;;;;;5001699;28;19909;-69
2022/11/14 10:32:37;;;;;;;49.25;28.35;;;9.50;99.90;;;;;;5000681;28;20038;-69
2022/11/14 10:35:09;;;;;;;49.40;28.42;;;9.60;99.90;;;;;;5001329;28;20034;-69
2022/11/14 10:37:40;;;;;;;51.85;27.23;;;9.60;99.90;;;;;;5002361;28;20041;-69
2022/11/14 10:40:18;;;;;;;50.20;26.85;;;9.70;99.90;;;;;;5001288;28;20083;-69
2022/11/14 10:42:49;;;;;;;45.50;25.70;;;9.80;99.90;;;;;;5002143;28;20033;-69
2022/11/14 10:45:37;;;;;;;49.88;26.95;;;9.80;99.90;;;;;;5003102;28;20129;-69
2022/11/14 10:48:11;;;;;;;40.85;25.55;;;9.90;99.90;;;;;;5001908;28;20069;-69
2022/11/14 10:50:44;;;;;;;50.88;29.73;;;10.00;99.90;;;;;;5002112;28;20029;-69
2022/11/14 10:53:23;;;;;;;47.90;27.38;;;10.00;99.90;;;;;;5002149;28;20385;-69
2022/11/14 10:55:50;;;;;;;39.72;25.17;;;10.10;99.90;;;;;;5000097;28;20057;-70
2022/11/14 10:58:16;;;;;;;51.08;27.58;;;10.10;99.90;;;;;;5001130;28;20058;-70
2022/11/14 11:00:41;;;;;;;47.25;26.00;;;10.10;99.90;;;;;;5002301;28;20497;-70
2022/11/14 11:03:07;;;;;;;46.17;26.25;;;10.20;99.90;;;;;;5002704;28;20030;-71
2022/11/14 11:05:50;;;;;;;41.50;25.35;;;10.20;99.90;;;;;;4999172;28;20026;-70
2022/11/14 11:11:30;;;;;;;40.42;24.08;;;10.30;99.90;;;;;;5006330;28;20038;-70
2022/11/14 11:13:59;;;;;;;42.17;24.10;;;10.30;99.90;;;;;;4999839;28;20393;-70
2022/11/14 11:16:27;;;;;;;45.78;25.60;;;10.30;99.90;;;;;;5000142;28;20052;-74
2022/11/14 11:19:12;;;;;;;43.75;26.50;;;10.40;99.90;;;;;;5001469;28;20119;-71
2022/11/14 11:21:49;;;;;;;42.10;24.30;;;10.40;99.90;;;;;;5000158;28;20046;-71
2022/11/14 11:24:36;;;;;;;37.80;23.92;;;10.50;99.90;;;;;;5000831;28;20034;-71
2022/11/14 11:27:21;;;;;;;42.15;24.88;;;10.50;99.90;;;;;;5002160;28;20030;-71
2022/11/14 11:30:05;;;;;;;40.00;24.73;;;10.60;99.90;;;;;;4998973;28;20032;-71
2022/11/14 11:32:31;;;;;;;42.65;24.88;;;10.60;99.90;;;;;;5001857;28;20029;-71
2022/11/14 11:34:59;;;;;;;45.95;25.02;;;10.70;99.90;;;;;;4999027;28;20046;-71
2022/11/14 11:37:30;;;;;;;42.00;24.73;;;10.70;99.90;;;;;;5002003;28;20619;-70
2022/11/14 11:40:01;;;;;;;42.83;25.33;;;10.80;99.90;;;;;;4997641;28;20057;-71
2022/11/14 11:42:50;;;;;;;39.55;24.42;;;10.80;99.90;;;;;;4999350;28;20034;-71
2022/11/14 11:45:18;;;;;;;43.60;23.63;;;10.90;99.90;;;;;;5002490;28;20057;-71
2022/11/14 11:47:52;;;;;;;34.75;21.05;;;10.90;99.90;;;;;;4999568;28;20041;-71
2022/11/14 11:50:20;;;;;;;37.35;22.73;;;11.00;99.90;;;;;;4998573;28;20046;-71
2022/11/14 11:53:04;;;;;;;35.10;21.75;;;11.00;99.90;;;;;;4997629;28;20064;-71
2022/11/14 11:55:33;;;;;;;31.70;21.03;;;11.10;99.90;;;;;;4999425;28;20038;-71
2022/11/14 11:58:26;;;;;;;38.15;22.73;;;11.10;99.90;;;;;;4996858;28;20165;-71
2022/11/14 12:00:55;;;;;;;38.60;22.20;;;11.20;99.90;;;;;;4999430;28;20030;-71
2022/11/14 12:03:24;;;;;;;34.28;21.13;;;11.20;99.90;;;;;;5000531;28;20060;-71
2022/11/14 12:06:15;;;;;;;35.20;22.15;;;11.20;99.90;;;;;;4999363;28;20036;-71
2022/11/14 12:09:20;;;;;;;41.03;22.40;;;11.30;99.90;;;;;;5000769;28;20030;-69
2022/11/14 12:11:57;;;;;;;39.72;23.27;;;11.30;99.90;;;;;;4998515;28;20042;-70
2022/11/14 12:14:52;;;;;;;34.80;21.45;;;11.30;99.90;;;;;;4995620;28;20607;-70
2022/11/14 12:17:21;;;;;;;33.25;19.73;;;11.40;99.90;;;;;;4998840;28;20034;-70
2022/11/14 12:20:04;;;;;;;32.17;20.92;;;11.40;99.90;;;;;;4997844;28;20041;-70
2022/11/14 12:22:52;;;;;;;34.50;21.88;;;11.50;99.90;;;;;;4999150;28;20103;-70
2022/11/14 12:25:49;;;;;;;31.38;20.88;;;11.50;99.80;;;;;;4998761;28;20025;-70
2022/11/14 12:28:19;;;;;;;33.35;21.83;;;11.50;99.70;;;;;;4998754;28;20034;-70
2022/11/14 12:30:52;;;;;;;33.80;21.55;;;11.60;99.70;;;;;;4998352;28;20036;-69
2022/11/14 12:33:38;;;;;;;34.53;22.23;;;11.60;99.60;;;;;;4998690;28;20045;-70
2022/11/14 12:36:08;;;;;;;29.92;20.15;;;11.60;99.60;;;;;;4998104;28;20121;-70
2022/11/14 12:39:19;;;;;;;31.05;19.30;;;11.70;99.60;;;;;;4999109;28;20038;-70
2022/11/14 12:41:45;;;;;;;27.65;18.05;;;11.70;99.60;;;;;;5000945;28;20413;-71
2022/11/14 12:44:26;;;;;;;28.92;19.00;;;11.70;99.50;;;;;;5000446;28;20045;-69
2022/11/14 12:47:04;;;;;;;31.60;20.60;;;11.80;99.50;;;;;;4998615;28;20057;-69
2022/11/14 12:49:35;;;;;;;29.65;19.17;;;11.90;99.40;;;;;;4990165;28;20068;-69